Time,TemperatureF,DewpointF,PressureIn,WindDirection,WindDirectionDegrees,WindSpeedMPH,WindSpeedGustMPH,Humidity,HourlyPrecipIn,Conditions,Clouds,dailyrainin,SolarRadiationWatts/m^2,SoftwareType,DateUTC
2013-02-25 00:01:00,15.0,10.0,30.21,ESE,105,1.0,3.0,81,-99.99,,,-99.99,0.000000,,2013-02-25 08:01:00,
2013-02-25 00:10:00,14.0,10.0,30.21,SSW,201,0.0,2.0,81,-99.99,,,-99.99,0.000000,,2013-02-25 08:10:00,
2013-02-25 00:52:00,14.0,10.0,30.21,SSW,201,0.0,2.0,81,-99.99,,,-99.99,0.000000,,2013-02-25 08:52:00,
2013-02-25 01:01:00,14.0,10.0,30.21,SSW,201,0.0,2.0,81,-99.99,,,-99.99,0.000000,,2013-02-25 09:01:00,
2013-02-25 01:10:00,14.0,10.0,30.21,SSE,165,1.0,3.0,85,-99.99,,,-99.99,0.000000,,2013-02-25 09:10:00,
2013-02-25 01:51:00,14.0,10.0,30.21,SSE,165,1.0,3.0,85,-99.99,,,-99.99,0.000000,,2013-02-25 09:51:00,
2013-02-25 02:01:00,14.0,10.0,30.21,SSE,165,1.0,3.0,85,-99.99,,,-99.99,0.000000,,2013-02-25 10:01:00,
2013-02-25 02:10:00,14.0,10.0,30.20,North,-999,0.0,0.0,83,-99.99,,,-99.99,0.000000,,2013-02-25 10:10:00,
2013-02-25 02:52:00,14.0,10.0,30.20,North,-999,0.0,0.0,83,-99.99,,,-99.99,0.000000,,2013-02-25 10:52:00,
2013-02-25 03:01:00,14.0,10.0,30.20,North,-999,0.0,0.0,83,-99.99,,,-99.99,0.000000,,2013-02-25 11:01:00,
2013-02-25 03:10:00,14.0,9.0,30.18,WSW,240,2.0,3.0,79,-99.99,,,-99.99,0.000000,,2013-02-25 11:10:00,
2013-02-25 03:52:00,14.0,9.0,30.18,WSW,240,2.0,3.0,79,-99.99,,,-99.99,0.000000,,2013-02-25 11:52:00,
2013-02-25 04:01:00,14.0,9.0,30.18,WSW,240,2.0,3.0,79,-99.99,,,-99.99,0.000000,,2013-02-25 12:01:00,
2013-02-25 04:10:00,11.0,8.0,30.17,WNW,288,2.0,3.0,84,-99.99,,,-99.99,0.000000,,2013-02-25 12:10:00,
2013-02-25 04:53:00,11.0,8.0,30.17,WNW,288,2.0,3.0,84,-99.99,,,-99.99,0.000000,,2013-02-25 12:53:00,
2013-02-25 05:02:00,11.0,8.0,30.17,WNW,288,2.0,3.0,84,-99.99,,,-99.99,0.000000,,2013-02-25 13:02:00,
2013-02-25 05:10:00,11.0,7.0,30.19,SW,227,1.0,1.0,84,-99.99,,,-99.99,0.000000,,2013-02-25 13:10:00,
2013-02-25 05:52:00,11.0,7.0,30.19,SW,227,1.0,1.0,84,-99.99,,,-99.99,0.000000,,2013-02-25 13:52:00,
2013-02-25 06:02:00,11.0,7.0,30.19,SW,227,1.0,1.0,84,-99.99,,,-99.99,0.000000,,2013-02-25 14:02:00,
2013-02-25 06:10:00,9.0,5.0,30.19,SE,142,3.0,4.0,81,-99.99,,,-99.99,0.000000,,2013-02-25 14:10:00,
2013-02-25 06:52:00,9.0,5.0,30.19,SE,142,3.0,4.0,81,-99.99,,,-99.99,0.000000,,2013-02-25 14:52:00,
2013-02-25 07:02:00,9.0,5.0,30.19,SE,142,3.0,4.0,81,-99.99,,,-99.99,0.000000,,2013-02-25 15:02:00,
2013-02-25 07:10:00,15.0,7.0,30.17,NE,53,1.0,2.0,71,-99.99,,,-99.99,140.000000,,2013-02-25 15:10:00,
2013-02-25 07:51:00,15.0,7.0,30.17,NE,53,1.0,2.0,71,-99.99,,,-99.99,140.000000,,2013-02-25 15:51:00,
2013-02-25 08:01:00,15.0,7.0,30.17,NE,53,1.0,2.0,71,-99.99,,,-99.99,140.000000,,2013-02-25 16:01:00,
2013-02-25 08:10:00,19.0,10.0,30.15,ENE,70,2.0,3.0,69,-99.99,,,-99.99,330.000000,,2013-02-25 16:10:00,
2013-02-25 08:51:00,19.0,10.0,30.15,ENE,70,2.0,3.0,69,-99.99,,,-99.99,330.000000,,2013-02-25 16:51:00,
2013-02-25 09:01:00,19.0,10.0,30.15,ENE,70,2.0,3.0,69,-99.99,,,-99.99,330.000000,,2013-02-25 17:01:00,
2013-02-25 09:10:00,23.0,12.0,30.12,SE,127,3.0,7.0,60,-99.99,,,-99.99,470.000000,,2013-02-25 17:10:00,
2013-02-25 09:52:00,23.0,12.0,30.12,SE,127,3.0,7.0,60,-99.99,,,-99.99,470.000000,,2013-02-25 17:52:00,
2013-02-25 10:01:00,23.0,12.0,30.12,SE,127,3.0,7.0,60,-99.99,,,-99.99,470.000000,,2013-02-25 18:01:00,
2013-02-25 10:10:00,28.0,13.0,30.09,South,176,4.0,7.0,52,-99.99,,,-99.99,500.000000,,2013-02-25 18:10:00,
2013-02-25 10:51:00,28.0,13.0,30.09,South,176,4.0,7.0,52,-99.99,,,-99.99,500.000000,,2013-02-25 18:51:00,
2013-02-25 11:01:00,28.0,13.0,30.09,South,176,4.0,7.0,52,-99.99,,,-99.99,500.000000,,2013-02-25 19:01:00,
2013-02-25 11:10:00,33.0,13.0,30.02,SSE,162,7.0,11.0,42,-99.99,,,-99.99,810.000000,,2013-02-25 19:10:00,
2013-02-25 11:52:00,33.0,13.0,30.02,SSE,162,7.0,11.0,42,-99.99,,,-99.99,810.000000,,2013-02-25 19:52:00,
2013-02-25 12:01:00,33.0,13.0,30.02,SSE,162,7.0,11.0,42,-99.99,,,-99.99,810.000000,,2013-02-25 20:01:00,
2013-02-25 12:10:00,39.0,11.0,29.98,ESE,117,5.0,10.0,32,-99.99,,,-99.99,730.000000,,2013-02-25 20:10:00,
2013-02-25 12:52:00,39.0,11.0,29.98,ESE,117,5.0,10.0,32,-99.99,,,-99.99,730.000000,,2013-02-25 20:52:00,
2013-02-25 13:01:00,39.0,11.0,29.98,ESE,117,5.0,10.0,32,-99.99,,,-99.99,730.000000,,2013-02-25 21:01:00,
2013-02-25 13:10:00,42.0,11.0,29.95,ENE,64,2.0,6.0,28,-99.99,,,-99.99,710.000000,,2013-02-25 21:10:00,
2013-02-25 13:51:00,42.0,11.0,29.95,ENE,64,2.0,6.0,28,-99.99,,,-99.99,710.000000,,2013-02-25 21:51:00,
2013-02-25 14:01:00,42.0,11.0,29.95,ENE,64,2.0,6.0,28,-99.99,,,-99.99,710.000000,,2013-02-25 22:01:00,
2013-02-25 14:10:00,49.0,4.0,29.92,West,272,12.0,22.0,16,-99.99,,,-99.99,630.000000,,2013-02-25 22:10:00,
2013-02-25 14:51:00,49.0,4.0,29.92,West,272,12.0,22.0,16,-99.99,,,-99.99,630.000000,,2013-02-25 22:51:00,
2013-02-25 15:01:00,49.0,4.0,29.92,West,272,12.0,22.0,16,-99.99,,,-99.99,630.000000,,2013-02-25 23:01:00,
2013-02-25 15:10:00,48.0,5.0,29.90,SW,223,9.0,18.0,17,-99.99,,,-99.99,450.000000,,2013-02-25 23:10:00,
2013-02-25 15:52:00,48.0,5.0,29.90,SW,223,9.0,18.0,17,-99.99,,,-99.99,450.000000,,2013-02-25 23:52:00,
2013-02-25 16:01:00,48.0,5.0,29.90,SW,223,9.0,18.0,17,-99.99,,,-99.99,450.000000,,2013-02-26 00:01:00,
2013-02-25 16:10:00,42.0,8.0,29.92,WNW,289,15.0,30.0,24,-99.99,,,-99.99,70.000000,,2013-02-26 00:10:00,
2013-02-25 16:51:00,42.0,8.0,29.92,WNW,289,15.0,30.0,24,-99.99,,,-99.99,70.000000,,2013-02-26 00:51:00,
2013-02-25 17:02:00,42.0,8.0,29.92,WNW,289,15.0,30.0,24,-99.99,,,-99.99,70.000000,,2013-02-26 01:02:00,
2013-02-25 17:10:00,37.0,17.0,29.97,North,4,8.0,16.0,44,-99.99,,,-99.99,0.000000,,2013-02-26 01:10:00,
2013-02-25 17:51:00,37.0,17.0,29.97,North,4,8.0,16.0,44,-99.99,,,-99.99,0.000000,,2013-02-26 01:51:00,
2013-02-25 18:01:00,37.0,17.0,29.97,North,4,8.0,16.0,44,-99.99,,,-99.99,0.000000,,2013-02-26 02:01:00,
2013-02-25 18:10:00,33.0,18.0,30.00,NNW,338,13.0,22.0,53,-99.99,,,-99.99,0.000000,,2013-02-26 02:10:00,
2013-02-25 18:52:00,33.0,18.0,30.00,NNW,338,13.0,22.0,53,-99.99,,,-99.99,0.000000,,2013-02-26 02:52:00,
2013-02-25 19:01:00,33.0,18.0,30.00,NNW,338,13.0,22.0,53,-99.99,,,-99.99,0.000000,,2013-02-26 03:01:00,
2013-02-25 19:10:00,29.0,19.0,30.00,NW,316,3.0,6.0,66,-99.99,,,-99.99,0.000000,,2013-02-26 03:10:00,
2013-02-25 19:52:00,29.0,19.0,30.00,NW,316,3.0,6.0,66,-99.99,,,-99.99,0.000000,,2013-02-26 03:52:00,
2013-02-25 20:01:00,29.0,19.0,30.00,NW,316,3.0,6.0,66,-99.99,,,-99.99,0.000000,,2013-02-26 04:01:00,
2013-02-25 20:10:00,29.0,16.0,30.03,North,359,6.0,10.0,60,-99.99,,,-99.99,0.000000,,2013-02-26 04:10:00,
2013-02-25 20:51:00,29.0,16.0,30.03,North,359,6.0,10.0,60,-99.99,,,-99.99,0.000000,,2013-02-26 04:51:00,
2013-02-25 21:01:00,29.0,16.0,30.03,North,359,6.0,10.0,60,-99.99,,,-99.99,0.000000,,2013-02-26 05:01:00,
2013-02-25 21:10:00,29.0,14.0,30.03,NNW,337,4.0,8.0,53,-99.99,,,-99.99,0.000000,,2013-02-26 05:10:00,
2013-02-25 21:52:00,29.0,14.0,30.03,NNW,337,4.0,8.0,53,-99.99,,,-99.99,0.000000,,2013-02-26 05:52:00,
2013-02-25 22:01:00,29.0,14.0,30.03,NNW,337,4.0,8.0,53,-99.99,,,-99.99,0.000000,,2013-02-26 06:01:00,
2013-02-25 23:10:00,28.0,20.0,30.03,NNW,335,4.0,7.0,71,-99.99,,,-99.99,0.000000,,2013-02-26 07:10:00,
2013-02-25 23:51:00,28.0,20.0,30.03,NNW,335,4.0,7.0,71,-99.99,,,-99.99,0.000000,,2013-02-26 07:51:00,